createdAt,value
2023-03-12T00:02:32.413Z,97123.47
2023-03-12T00:06:33.781Z,97124.69
2023-03-12T00:10:35.286Z,97123.72
2023-03-12T00:14:36.647Z,97128.34
2023-03-12T00:18:39.560Z,97137.28
2023-03-12T00:22:41.069Z,97142.41
2023-03-12T00:26:42.455Z,97144.06
2023-03-12T00:30:43.857Z,97146.06
2023-03-12T00:34:50.000Z,97146.63
2023-03-12T00:38:51.462Z,97154.97
2023-03-12T00:42:52.822Z,97150.94
2023-03-12T00:46:54.172Z,97154.47
2023-03-12T00:50:56.936Z,97152.91
2023-03-12T00:54:58.373Z,97154.31
2023-03-12T00:58:59.867Z,97151.22
2023-03-12T01:03:01.257Z,97156.34
2023-03-12T01:07:04.108Z,97162.75
2023-03-12T01:11:05.694Z,97153.59
2023-03-12T01:15:07.841Z,97148.69
2023-03-12T01:19:09.209Z,97151.31
2023-03-12T01:23:11.961Z,97159.03
2023-03-12T01:27:13.391Z,97163.63
2023-03-12T01:31:16.314Z,97155.50
2023-03-12T01:35:17.809Z,97147.50
2023-03-12T01:39:20.552Z,97142.25
2023-03-12T01:43:27.099Z,97154.34
2023-03-12T01:47:29.237Z,97147.19
2023-03-12T01:51:32.106Z,97142.34
2023-03-12T01:55:34.923Z,97136.78
2023-03-12T01:59:38.748Z,97131.94
2023-03-12T02:03:40.796Z,97135.25
2023-03-12T02:07:42.274Z,97140.38
2023-03-12T02:11:45.001Z,97136.16
2023-03-12T02:15:46.503Z,97141.22
2023-03-12T02:19:52.946Z,97141.03
2023-03-12T02:23:58.529Z,97149.75
2023-03-12T02:28:03.063Z,97145.19
2023-03-12T02:32:05.787Z,97150.97
2023-03-12T02:36:07.695Z,97152.03
2023-03-12T02:40:13.326Z,97156.31
2023-03-12T02:44:16.973Z,97156.22
2023-03-12T02:48:18.323Z,97156.81
2023-03-12T02:52:19.785Z,97154.06
2023-03-12T02:56:21.779Z,97156.78
2023-03-12T03:00:24.701Z,97154.06
2023-03-12T03:04:26.598Z,97157.28
2023-03-12T03:08:27.974Z,97158.41
2023-03-12T03:12:29.516Z,97158.72
2023-03-12T03:16:32.690Z,97168.91
2023-03-12T03:20:34.046Z,97166.16
2023-03-12T03:24:35.402Z,97167.28
2023-03-12T03:28:36.774Z,97168.03
2023-03-12T03:32:39.523Z,97167.78
2023-03-12T03:36:40.907Z,97176.44
2023-03-12T03:40:42.380Z,97182.66
2023-03-12T03:44:43.784Z,97185.91
2023-03-12T03:48:46.507Z,97191.47
2023-03-12T03:52:47.866Z,97190.25
2023-03-12T03:56:49.282Z,97195.72
2023-03-12T04:00:50.843Z,97199.84
2023-03-12T04:04:56.516Z,97207.75
2023-03-12T04:08:57.923Z,97200.88
2023-03-12T04:12:59.276Z,97200.69
2023-03-12T04:17:00.717Z,97213.50
2023-03-12T04:21:03.589Z,97210.47
2023-03-12T04:25:06.271Z,97204.00
2023-03-12T04:29:07.651Z,97209.41
2023-03-12T04:33:09.007Z,97203.00
2023-03-12T04:37:11.859Z,97199.97
2023-03-12T04:41:14.371Z,97189.19
2023-03-12T04:45:15.739Z,97195.19
2023-03-12T04:49:17.124Z,97187.91
2023-03-12T04:53:19.999Z,97194.84
2023-03-12T04:57:21.768Z,97195.22
2023-03-12T05:01:25.341Z,97183.47
2023-03-12T05:05:26.684Z,97192.75
2023-03-12T05:09:29.422Z,97195.25
2023-03-12T05:13:30.770Z,97187.94
2023-03-12T05:17:32.159Z,97187.97
2023-03-12T05:21:33.554Z,97187.03
2023-03-12T05:25:39.585Z,97185.97
2023-03-12T05:29:40.951Z,97194.72
2023-03-12T05:33:42.712Z,97181.84
2023-03-12T05:37:44.083Z,97178.78
2023-03-12T05:41:46.765Z,97191.16
2023-03-12T05:45:48.213Z,97193.38
2023-03-12T05:49:49.651Z,97194.81
2023-03-12T05:53:51.029Z,97201.28
2023-03-12T05:57:53.749Z,97196.22
2023-03-12T06:01:55.131Z,97195.78
2023-03-12T06:05:56.606Z,97182.22
2023-03-12T06:09:58.110Z,97194.47
2023-03-12T06:14:01.103Z,97200.09
2023-03-12T06:18:02.443Z,97200.09
2023-03-12T06:22:03.789Z,97201.03
2023-03-12T06:26:05.532Z,97193.81
2023-03-12T06:30:09.078Z,97190.25
2023-03-12T06:34:10.447Z,97193.44
2023-03-12T06:38:11.831Z,97198.66
2023-03-12T06:42:13.195Z,97201.25
2023-03-12T06:46:16.920Z,97203.13
2023-03-12T06:50:18.423Z,97210.00
2023-03-12T06:54:19.795Z,97203.75
2023-03-12T06:58:21.206Z,97212.00
2023-03-12T07:02:24.019Z,97213.91
2023-03-12T07:06:25.459Z,97228.59
2023-03-12T07:10:26.842Z,97229.06
2023-03-12T07:14:28.202Z,97230.13
2023-03-12T07:18:31.023Z,97229.63
2023-03-12T07:22:32.356Z,97227.03
2023-03-12T07:26:34.117Z,97236.91
2023-03-12T07:30:35.537Z,97225.94
2023-03-12T07:34:38.372Z,97235.38
2023-03-12T07:38:39.737Z,97227.44
2023-03-12T07:42:41.056Z,97227.19
2023-03-12T07:46:42.494Z,97224.03
2023-03-12T07:50:45.299Z,97224.03
2023-03-12T07:54:46.865Z,97232.47
2023-03-12T07:58:48.365Z,97231.72
2023-03-12T08:02:50.307Z,97212.88
2023-03-12T08:06:53.301Z,97208.94
2023-03-12T08:10:55.077Z,97211.16
2023-03-12T08:14:56.464Z,97206.53
2023-03-12T08:18:58.000Z,97202.16
2023-03-12T08:23:00.707Z,97201.19
2023-03-12T08:27:02.076Z,97206.88
2023-03-12T08:31:03.558Z,97207.47
2023-03-12T08:35:05.256Z,97196.13
2023-03-12T08:39:08.115Z,97202.28
2023-03-12T08:43:09.470Z,97207.25
2023-03-12T08:47:11.010Z,97203.94
2023-03-12T08:51:13.439Z,97199.19
2023-03-12T08:55:17.777Z,97203.97
2023-03-12T08:59:19.573Z,97204.50
2023-03-12T09:03:21.403Z,97209.19
2023-03-12T09:07:22.915Z,97215.47
2023-03-12T09:11:25.697Z,97217.13
2023-03-12T09:15:27.126Z,97204.00
2023-03-12T09:19:28.521Z,97195.22
2023-03-12T09:23:29.864Z,97200.97
2023-03-12T09:27:35.209Z,97204.00
2023-03-12T09:31:36.618Z,97190.56
2023-03-12T09:35:38.052Z,97188.38
2023-03-12T09:39:39.401Z,97193.31
2023-03-12T09:43:45.605Z,97195.50
2023-03-12T09:47:48.741Z,97200.44
2023-03-12T09:51:53.765Z,97193.31
2023-03-12T09:55:56.352Z,97188.66
2023-03-12T09:59:59.275Z,97179.34
2023-03-12T10:04:07.387Z,97187.81
2023-03-12T10:08:23.820Z,97194.56
2023-03-12T10:12:34.448Z,97196.66
2023-03-12T10:16:43.869Z,97194.56
2023-03-12T10:21:01.455Z,97187.94
2023-03-12T10:25:08.044Z,97188.28
2023-03-12T10:29:12.974Z,97199.47
2023-03-12T10:33:17.558Z,97202.84
2023-03-12T10:37:22.425Z,97201.06
2023-03-12T10:41:24.797Z,97207.25
2023-03-12T10:45:27.551Z,97215.09
2023-03-12T10:49:31.489Z,97205.28
2023-03-12T10:53:33.518Z,97217.00
2023-03-12T10:57:39.427Z,97193.19
2023-03-12T11:01:47.489Z,97193.59
2023-03-12T11:05:51.776Z,97191.59
2023-03-12T11:10:14.127Z,97191.50
2023-03-12T11:14:16.626Z,97191.78
2023-03-12T11:18:22.750Z,97192.69
2023-03-12T11:22:29.676Z,97193.44
2023-03-12T11:26:32.010Z,97193.13
2023-03-12T11:30:36.959Z,97194.25
2023-03-12T11:34:39.470Z,97200.00
2023-03-12T11:38:45.516Z,97199.88
2023-03-12T11:42:56.593Z,97208.69
2023-03-12T11:47:15.666Z,97203.25
2023-03-12T11:51:22.128Z,97195.03
2023-03-12T11:55:37.060Z,97186.22
2023-03-12T11:59:46.636Z,97181.22
2023-03-12T12:04:00.875Z,97181.22
2023-03-12T12:08:12.409Z,97188.19
2023-03-12T12:12:24.953Z,97181.41
2023-03-12T12:16:31.972Z,97169.91
2023-03-12T12:20:39.285Z,97158.38
2023-03-12T12:24:52.399Z,97162.25
2023-03-12T12:29:14.771Z,97166.13
2023-03-12T12:33:20.608Z,97156.50
2023-03-12T12:37:24.745Z,97150.47
2023-03-12T12:41:27.130Z,97147.97
2023-03-12T12:45:31.154Z,97149.31
2023-03-12T12:49:35.957Z,97141.34
2023-03-12T12:53:40.883Z,97139.50
2023-03-12T12:57:44.852Z,97141.38
2023-03-12T13:01:48.577Z,97137.63
2023-03-12T13:05:54.788Z,97127.44
2023-03-12T13:09:56.861Z,97122.09
2023-03-12T13:14:13.105Z,97128.28
2023-03-12T13:18:20.893Z,97137.03
2023-03-12T13:22:27.042Z,97125.78
2023-03-12T13:26:30.971Z,97129.03
2023-03-12T13:30:45.709Z,97128.72
2023-03-12T13:34:48.805Z,97127.88
2023-03-12T13:38:54.598Z,97127.63
2023-03-12T13:43:01.697Z,97126.53
2023-03-12T13:47:04.254Z,97140.88
2023-03-12T13:51:12.078Z,97134.34
2023-03-12T13:55:18.004Z,97128.06
2023-03-12T13:59:19.464Z,97129.13
2023-03-12T14:03:23.288Z,97128.94
2023-03-12T14:07:38.741Z,97114.94
2023-03-12T14:11:46.092Z,97131.94
2023-03-12T14:15:51.445Z,97105.59
2023-03-12T14:19:57.160Z,97112.78
2023-03-12T14:24:00.330Z,97125.38
2023-03-12T14:28:02.602Z,97118.25
2023-03-12T14:32:05.911Z,97125.41
2023-03-12T14:36:11.665Z,97121.84
2023-03-12T14:40:20.982Z,97124.84
2023-03-12T14:44:23.291Z,97123.47
2023-03-12T14:48:27.609Z,97127.56
2023-03-12T14:52:29.469Z,97118.03
2023-03-12T14:56:33.320Z,97115.81
2023-03-12T15:00:35.020Z,97121.28
2023-03-12T15:04:36.542Z,97110.09
2023-03-12T15:08:39.557Z,97117.47
2023-03-12T15:12:45.128Z,97125.09
2023-03-12T15:16:46.624Z,97124.28
2023-03-12T15:20:49.136Z,97115.84
2023-03-12T15:24:50.912Z,97120.72
2023-03-12T15:28:57.143Z,97129.25
2023-03-12T15:33:06.095Z,97125.69
2023-03-12T15:37:20.606Z,97108.47
2023-03-12T15:41:23.159Z,97118.84
2023-03-12T15:45:30.391Z,97122.94
2023-03-12T15:49:34.196Z,97124.03
2023-03-12T15:53:35.575Z,97121.03
2023-03-12T15:57:45.108Z,97116.34
2023-03-12T16:01:48.602Z,97100.19
2023-03-12T16:05:50.459Z,97110.84
2023-03-12T16:09:51.810Z,97109.47
2023-03-12T16:13:57.241Z,97105.03
2023-03-12T16:18:00.085Z,97103.09
2023-03-12T16:22:01.439Z,97107.41
2023-03-12T16:26:04.589Z,97104.31
2023-03-12T16:30:07.301Z,97103.72
2023-03-12T16:34:11.123Z,97112.75
2023-03-12T16:38:12.582Z,97111.09
2023-03-12T16:42:15.624Z,97105.06
2023-03-12T16:46:19.324Z,97114.91
2023-03-12T16:50:22.386Z,97114.94
2023-03-12T16:54:23.848Z,97123.72
2023-03-12T16:58:26.684Z,97119.91
2023-03-12T17:02:28.099Z,97126.75
2023-03-12T17:06:30.827Z,97136.63
2023-03-12T17:10:32.146Z,97148.19
2023-03-12T17:14:33.511Z,97143.50
2023-03-12T17:18:34.861Z,97137.25
2023-03-12T17:22:37.562Z,97143.28
2023-03-12T17:26:38.902Z,97144.41
2023-03-12T17:30:40.226Z,97148.53
2023-03-12T17:34:41.574Z,97151.28
2023-03-12T17:38:44.503Z,97140.63
2023-03-12T17:42:45.878Z,97144.44
2023-03-12T17:46:58.818Z,97152.97
2023-03-12T17:51:04.680Z,97147.75
2023-03-12T17:55:09.874Z,97143.63
2023-03-12T17:59:12.419Z,97141.41
2023-03-12T18:03:13.830Z,97137.06
2023-03-12T18:07:15.357Z,97143.63
2023-03-12T18:11:18.041Z,97143.59
2023-03-12T18:15:19.388Z,97136.78
2023-03-12T18:19:20.736Z,97145.25
2023-03-12T18:23:22.130Z,97161.69
2023-03-12T18:27:24.857Z,97165.81
2023-03-12T18:31:26.235Z,97164.72
2023-03-12T18:35:27.763Z,97162.78
2023-03-12T18:39:29.191Z,97182.53
2023-03-12T18:43:32.141Z,97171.03
2023-03-12T18:47:33.497Z,97177.91
2023-03-12T18:51:34.925Z,97176.00
2023-03-12T18:55:36.302Z,97168.09
2023-03-12T18:59:39.004Z,97182.34
2023-03-12T19:03:40.355Z,97187.56
2023-03-12T19:07:41.745Z,97178.25
2023-03-12T19:11:43.205Z,97179.59
2023-03-12T19:15:45.929Z,97173.56
2023-03-12T19:19:47.366Z,97174.94
2023-03-12T19:23:48.745Z,97182.09
2023-03-12T19:27:50.106Z,97175.50
2023-03-12T19:31:52.869Z,97175.78
2023-03-12T19:35:54.594Z,97187.00
2023-03-12T19:39:56.104Z,97180.97
2023-03-12T19:43:57.487Z,97185.38
2023-03-12T19:48:00.249Z,97187.81
2023-03-12T19:52:01.614Z,97185.91
2023-03-12T19:56:03.447Z,97189.72
2023-03-12T20:00:05.436Z,97190.00
2023-03-12T20:04:08.365Z,97197.38
2023-03-12T20:08:09.710Z,97205.06
2023-03-12T20:12:11.044Z,97203.41
2023-03-12T20:16:12.465Z,97207.81
2023-03-12T20:20:15.213Z,97207.50
2023-03-12T20:24:16.559Z,97214.63
2023-03-12T20:28:17.986Z,97216.00
2023-03-12T20:32:19.395Z,97215.44
2023-03-12T20:36:22.160Z,97213.00
2023-03-12T20:40:23.506Z,97206.69
2023-03-12T20:44:24.857Z,97198.72
2023-03-12T20:48:26.180Z,97212.47
2023-03-12T20:52:28.868Z,97207.25
2023-03-12T20:56:30.218Z,97205.03
2023-03-12T21:00:31.710Z,97209.69
2023-03-12T21:04:33.036Z,97212.69
2023-03-12T21:08:35.761Z,97207.69
2023-03-12T21:12:37.096Z,97224.72
2023-03-12T21:16:38.522Z,97227.16
2023-03-12T21:20:39.968Z,97231.25
2023-03-12T21:24:42.657Z,97232.34
2023-03-12T21:28:44.104Z,97234.53
2023-03-12T21:32:45.478Z,97225.66
2023-03-12T21:36:47.112Z,97230.59
2023-03-12T21:40:49.815Z,97223.41
2023-03-12T21:44:51.168Z,97214.34
2023-03-12T21:48:52.545Z,97209.66
2023-03-12T21:52:53.917Z,97209.63
2023-03-12T21:56:56.608Z,97201.69
2023-03-12T22:01:04.858Z,97195.63
2023-03-12T22:05:06.841Z,97201.06
2023-03-12T22:09:08.199Z,97194.22
2023-03-12T22:13:10.878Z,97199.72
2023-03-12T22:17:12.215Z,97192.28
2023-03-12T22:21:14.746Z,97184.06
2023-03-12T22:25:16.230Z,97194.81
2023-03-12T22:29:18.907Z,97190.91
2023-03-12T22:33:20.278Z,97189.31
2023-03-12T22:37:21.685Z,97179.34
2023-03-12T22:41:24.037Z,97183.47
2023-03-12T22:45:26.714Z,97184.31
2023-03-12T22:49:28.091Z,97177.25
2023-03-12T22:53:29.532Z,97179.97
2023-03-12T22:57:32.981Z,97177.47
2023-03-12T23:01:35.700Z,97180.47
2023-03-12T23:05:37.060Z,97174.94
2023-03-12T23:09:38.488Z,97175.47
2023-03-12T23:13:41.029Z,97164.53
2023-03-12T23:17:43.716Z,97160.72
2023-03-12T23:21:45.079Z,97155.84
2023-03-12T23:25:51.644Z,97160.22
2023-03-12T23:29:52.993Z,97156.63
2023-03-12T23:33:56.004Z,97150.31
2023-03-12T23:37:57.464Z,97150.19
2023-03-12T23:41:58.816Z,97141.41
2023-03-12T23:46:00.828Z,97141.47
2023-03-12T23:50:03.734Z,97142.50
2023-03-12T23:54:05.157Z,97138.63
2023-03-12T23:58:06.536Z,97136.97
